Aérodrome :
LOGIN :

S'inscrire | Disclaimer

   EN    FR    IT 

 










Légende :    VFR   VFR Marginal   IFR   IFR Intensif   IFR Très Intensif
Visi : 
Plafond : 
>= 8 km
>= 3000ft
5 à 8 km
1000 à 3000 ft
1500m à 5 km
500 à 1000 ft
800 à 1500m
200 à 500 ft
< 800m
< 200 ft
Symboles :   Orages  Brouillard  Fortes neiges  Fortes précipitations  Vent > 20 kt
SIGMETs :   Divers  Orages  Givrage  Turbulence  Onde Orograph.  Cendres Volcan.







- Altitude de l'aérodrome : 284 ft


EGUW - RAF Wattisham

DERNIER METAR :
  • 251750Z 34015KT 9999 -SHRA SCT028CB BKN039 05/M00 Q1012 BLU TEMPO 4000 SHRA BKN028CB GRN

METARs EXPIRÉS :
  • 251650Z 33016KT 9999 VCSH FEW050CB 07/M02 Q1012 BLU TEMPO 5000 SHRA BKN045CB WHT
  • 251550Z 33015KT 9999 FEW045CB SCT050 09/M06 Q1012 BLU TEMPO 5000 SHRA BKN045CB

TAF TAF EGUW
Valide du 25 à 18h jusqu'au 26 à 02h UTC


251630Z 2518/2602 33011KT 9999 SCT045
TEMPO 2518/2524 33015G25KT 7000 SHRA SCT015 SCT030TCU
PROB30
TEMPO 2518/2520 4000 +SHRA SCT015 SCT030CB
PROB30 2523/2602 SCT007
Pas de NOTAMs connus pour ce terrain.



MET'MAP, la Météo Aéronautique d'un coup d'oeil ! - Copyright ORBIFLY Décembre 2007 - Disclaimer

ORBIFLY MET'MAP TEAM :

Programmation & Développement : Alexandra Zaïnal
Conception & Développement : Baudouin d'Aumeries
Co-Programmation & Développement : Marc-Olivier Méhu
Soutien technique & logistique : Manuel Goepfert

Contact : metmap@orbifly.com




SOURCES & CREDITS :

   NOAA